Time;durP1;ratioP1;P1;durP2;ratioP2;P2;SDS_P1;SDS_P2;PMS_P1;PMS_P2;Temp;Humidity;BMP_temperature;BMP_pressure;BME280_temperature;BME280_humidity;BME280_pressure;Samples;Min_cycle;Max_cycle;Signal;HPM_P1;HPM_P2
2023/12/31 00:01:57;;;;;;;5.97;5.32;;;;;;;;;;5055809;28;20021;-56
2023/12/31 00:04:23;;;;;;;7.63;6.40;;;;;;;;;;5055734;28;20017;-56
2023/12/31 00:06:49;;;;;;;8.13;6.03;;;;;;;;;;5055822;28;20033;-54
2023/12/31 00:09:15;;;;;;;9.55;6.68;;;;;;;;;;5056047;28;20060;-53
2023/12/31 00:11:41;;;;;;;6.78;5.88;;;;;;;;;;5055718;28;20017;-56
2023/12/31 00:14:07;;;;;;;7.82;6.57;;;;;;;;;;5056276;28;20025;-55
2023/12/31 00:16:33;;;;;;;11.25;6.68;;;;;;;;;;5055528;28;20451;-56
2023/12/31 00:18:59;;;;;;;7.35;6.03;;;;;;;;;;5056141;28;20029;-56
2023/12/31 00:21:25;;;;;;;7.53;5.93;;;;;;;;;;5055527;28;20021;-55
2023/12/31 00:23:51;;;;;;;9.70;5.88;;;;;;;;;;5056342;28;20055;-56
2023/12/31 00:26:17;;;;;;;10.55;6.13;;;;;;;;;;5054531;28;20032;-56
2023/12/31 00:28:43;;;;;;;8.52;6.60;;;;;;;;;;5055678;28;20029;-56
2023/12/31 00:31:09;;;;;;;7.70;5.70;;;;;;;;;;5055031;28;20029;-57
2023/12/31 00:33:34;;;;;;;7.63;5.63;;;;;;;;;;5055274;28;20075;-55
2023/12/31 00:36:00;;;;;;;6.20;5.15;;;;;;;;;;5055507;28;20028;-56
2023/12/31 00:38:26;;;;;;;7.57;5.05;;;;;;;;;;5055514;28;20450;-56
2023/12/31 00:40:53;;;;;;;7.80;5.30;;;;;;;;;;5054964;28;20028;-56
2023/12/31 00:43:19;;;;;;;8.38;5.50;;;;;;;;;;5055614;28;20025;-56
2023/12/31 00:45:45;;;;;;;6.43;5.10;;;;;;;;;;5055106;28;20090;-56
2023/12/31 00:48:11;;;;;;;6.35;4.47;;;;;;;;;;5055391;28;20029;-56
2023/12/31 00:50:37;;;;;;;4.68;3.80;;;;;;;;;;5055035;28;20032;-55
2023/12/31 00:53:03;;;;;;;7.20;4.65;;;;;;;;;;5055179;28;20033;-56
2023/12/31 00:55:29;;;;;;;6.78;4.03;;;;;;;;;;5054465;28;20029;-57
2023/12/31 00:57:55;;;;;;;4.35;3.72;;;;;;;;;;5054780;28;20116;-56
2023/12/31 01:00:21;;;;;;;8.63;4.43;;;;;;;;;;5055067;28;20029;-56
2023/12/31 01:02:47;;;;;;;5.65;4.15;;;;;;;;;;5054445;28;20029;-56
2023/12/31 01:05:13;;;;;;;5.25;4.07;;;;;;;;;;5055001;28;20405;-56
2023/12/31 01:07:38;;;;;;;4.78;3.05;;;;;;;;;;5055244;28;20029;-55
2023/12/31 01:10:05;;;;;;;4.28;2.83;;;;;;;;;;5055175;28;20044;-56
2023/12/31 01:12:31;;;;;;;4.78;3.75;;;;;;;;;;5054500;28;20025;-56
2023/12/31 01:14:57;;;;;;;7.22;3.72;;;;;;;;;;5054499;28;20473;-55
2023/12/31 01:17:23;;;;;;;6.55;4.20;;;;;;;;;;5054795;28;20071;-56
2023/12/31 01:19:49;;;;;;;4.45;3.60;;;;;;;;;;5054471;28;20025;-55
2023/12/31 01:22:15;;;;;;;7.22;4.03;;;;;;;;;;5054877;28;20021;-55
2023/12/31 01:24:41;;;;;;;4.10;3.35;;;;;;;;;;5054383;28;20025;-55
2023/12/31 01:27:07;;;;;;;4.80;3.55;;;;;;;;;;5054901;28;20123;-55
2023/12/31 01:29:33;;;;;;;4.25;3.17;;;;;;;;;;5054507;28;20426;-56
2023/12/31 01:31:59;;;;;;;4.75;3.00;;;;;;;;;;5054196;28;20083;-55
2023/12/31 01:34:25;;;;;;;4.68;3.70;;;;;;;;;;5054166;28;20060;-55
2023/12/31 01:36:51;;;;;;;4.43;3.10;;;;;;;;;;5054018;28;20202;-54
2023/12/31 01:39:17;;;;;;;4.95;3.45;;;;;;;;;;5054386;28;20083;-56
2023/12/31 01:41:43;;;;;;;4.45;2.88;;;;;;;;;;5054552;28;20083;-55
2023/12/31 01:44:10;;;;;;;4.75;3.28;;;;;;;;;;5054081;28;20070;-56
2023/12/31 01:46:36;;;;;;;4.47;2.80;;;;;;;;;;5053063;28;20116;-55
2023/12/31 01:49:02;;;;;;;3.65;2.67;;;;;;;;;;5054056;28;20344;-56
2023/12/31 01:51:30;;;;;;;3.30;2.35;;;;;;;;;;5053812;28;20029;-55
2023/12/31 01:53:58;;;;;;;6.30;3.08;;;;;;;;;;5053859;28;20021;-54
2023/12/31 01:56:25;;;;;;;3.80;2.67;;;;;;;;;;5054587;28;20417;-54
2023/12/31 01:58:52;;;;;;;3.78;2.72;;;;;;;;;;5054264;28;20082;-58
2023/12/31 02:01:18;;;;;;;3.17;2.58;;;;;;;;;;5053214;28;20032;-58
2023/12/31 02:03:44;;;;;;;3.40;2.30;;;;;;;;;;5053882;28;20033;-56
2023/12/31 02:06:10;;;;;;;4.93;2.67;;;;;;;;;;5054456;28;20021;-58
2023/12/31 02:08:36;;;;;;;3.22;2.55;;;;;;;;;;5054555;28;20412;-58
2023/12/31 02:11:03;;;;;;;4.10;2.97;;;;;;;;;;5053944;28;20024;-58
2023/12/31 02:13:29;;;;;;;4.45;3.15;;;;;;;;;;5054362;28;20021;-57
2023/12/31 02:15:55;;;;;;;6.97;3.30;;;;;;;;;;5054203;28;20040;-57
2023/12/31 02:18:21;;;;;;;8.65;3.50;;;;;;;;;;5054129;28;20033;-57
2023/12/31 02:20:47;;;;;;;6.35;2.95;;;;;;;;;;5054113;28;20029;-58
2023/12/31 02:23:13;;;;;;;4.60;3.38;;;;;;;;;;5054112;28;20021;-58
2023/12/31 02:25:40;;;;;;;4.30;3.20;;;;;;;;;;5053162;28;20040;-59
2023/12/31 02:28:08;;;;;;;5.13;3.47;;;;;;;;;;5053823;28;20087;-58
2023/12/31 02:30:34;;;;;;;4.50;3.00;;;;;;;;;;5054275;28;20467;-59
2023/12/31 02:33:00;;;;;;;5.30;3.53;;;;;;;;;;5053676;28;20447;-58
2023/12/31 02:35:26;;;;;;;6.63;2.78;;;;;;;;;;5053365;28;20032;-55
2023/12/31 02:37:53;;;;;;;4.80;3.00;;;;;;;;;;5053345;28;20078;-56
2023/12/31 02:40:20;;;;;;;5.68;3.38;;;;;;;;;;5053677;28;20033;-56
2023/12/31 02:42:46;;;;;;;4.97;3.38;;;;;;;;;;5053939;28;20025;-56
2023/12/31 02:45:12;;;;;;;5.43;3.17;;;;;;;;;;5053371;28;20448;-55
2023/12/31 02:47:38;;;;;;;5.53;3.35;;;;;;;;;;5053806;28;20037;-56
2023/12/31 02:50:05;;;;;;;6.07;3.47;;;;;;;;;;5057223;28;20021;-55
2023/12/31 02:52:31;;;;;;;4.45;3.25;;;;;;;;;;5058019;28;20026;-56
2023/12/31 02:54:57;;;;;;;4.68;3.88;;;;;;;;;;5057225;28;20032;-53
2023/12/31 02:57:23;;;;;;;3.60;2.55;;;;;;;;;;5058010;28;20140;-56
2023/12/31 02:59:49;;;;;;;4.57;3.63;;;;;;;;;;5057383;28;20053;-55
2023/12/31 03:02:14;;;;;;;4.03;3.05;;;;;;;;;;5057065;28;20477;-56
2023/12/31 03:04:40;;;;;;;5.13;3.53;;;;;;;;;;5057063;28;20455;-56
2023/12/31 03:07:07;;;;;;;4.45;3.15;;;;;;;;;;5057348;28;20030;-55
2023/12/31 03:09:32;;;;;;;7.63;3.38;;;;;;;;;;5056922;28;20084;-55
2023/12/31 03:11:58;;;;;;;4.97;3.70;;;;;;;;;;5057718;28;20366;-55
2023/12/31 03:14:24;;;;;;;4.53;3.17;;;;;;;;;;5057387;28;20055;-56
2023/12/31 03:16:50;;;;;;;6.32;2.83;;;;;;;;;;5056716;28;20410;-55
2023/12/31 03:19:16;;;;;;;4.18;3.35;;;;;;;;;;5056840;28;20017;-55
2023/12/31 03:21:42;;;;;;;4.28;2.97;;;;;;;;;;5056762;28;20036;-56
2023/12/31 03:24:09;;;;;;;4.55;3.10;;;;;;;;;;5057225;28;20025;-56
2023/12/31 03:26:35;;;;;;;7.82;3.60;;;;;;;;;;5056942;28;20021;-56
2023/12/31 03:29:01;;;;;;;3.88;2.63;;;;;;;;;;5057133;28;20035;-56
2023/12/31 03:31:27;;;;;;;5.25;2.95;;;;;;;;;;5057345;28;20384;-55
2023/12/31 03:33:53;;;;;;;4.68;2.60;;;;;;;;;;5056441;28;20466;-56
2023/12/31 03:36:24;;;;;;;5.55;3.50;;;;;;;;;;5056138;28;20025;-54
2023/12/31 03:38:50;;;;;;;9.07;3.53;;;;;;;;;;5056880;28;20125;-56
2023/12/31 03:41:16;;;;;;;3.85;2.85;;;;;;;;;;5056375;28;20048;-56
2023/12/31 03:43:42;;;;;;;5.05;3.13;;;;;;;;;;5056347;28;20028;-54
2023/12/31 03:46:07;;;;;;;4.60;3.00;;;;;;;;;;5056221;28;20031;-56
2023/12/31 03:48:33;;;;;;;6.00;3.35;;;;;;;;;;5056215;28;20067;-56
2023/12/31 03:50:59;;;;;;;4.78;3.10;;;;;;;;;;5055901;28;20025;-56
2023/12/31 03:53:25;;;;;;;4.28;2.88;;;;;;;;;;5056148;28;20083;-56
2023/12/31 03:55:51;;;;;;;4.65;2.50;;;;;;;;;;5056291;28;20395;-54
2023/12/31 03:58:17;;;;;;;4.32;3.28;;;;;;;;;;5056707;28;20079;-54
2023/12/31 04:00:43;;;;;;;4.25;3.38;;;;;;;;;;5054658;28;20025;-55
2023/12/31 04:03:09;;;;;;;3.88;2.78;;;;;;;;;;5055960;28;20028;-53
2023/12/31 04:05:35;;;;;;;3.78;3.10;;;;;;;;;;5055832;28;20017;-56
2023/12/31 04:08:01;;;;;;;3.17;1.98;;;;;;;;;;5056197;28;20360;-56
2023/12/31 04:10:27;;;;;;;3.95;2.83;;;;;;;;;;5056358;28;20039;-54
2023/12/31 04:12:53;;;;;;;4.78;2.65;;;;;;;;;;5055727;28;20040;-56
2023/12/31 04:15:19;;;;;;;3.97;2.47;;;;;;;;;;5055692;28;20059;-56
2023/12/31 04:17:45;;;;;;;3.60;2.38;;;;;;;;;;5056163;28;20040;-55
2023/12/31 04:20:11;;;;;;;3.53;2.22;;;;;;;;;;5056100;28;20021;-54
2023/12/31 04:22:37;;;;;;;4.57;2.95;;;;;;;;;;5055554;28;20063;-55
2023/12/31 04:25:04;;;;;;;4.03;2.75;;;;;;;;;;5055514;28;20029;-56
2023/12/31 04:27:35;;;;;;;4.82;2.92;;;;;;;;;;5056360;28;20036;-56
2023/12/31 04:30:01;;;;;;;4.57;2.60;;;;;;;;;;5056014;28;20029;-56
2023/12/31 04:32:27;;;;;;;6.10;2.90;;;;;;;;;;5055145;28;20086;-56
2023/12/31 04:34:53;;;;;;;3.28;2.42;;;;;;;;;;5055361;28;20075;-55
2023/12/31 04:37:19;;;;;;;4.20;2.97;;;;;;;;;;5055766;28;20048;-56
2023/12/31 04:39:45;;;;;;;6.10;3.33;;;;;;;;;;5055746;28;20032;-56
2023/12/31 04:42:11;;;;;;;4.45;2.90;;;;;;;;;;5055448;28;20021;-55
2023/12/31 04:44:37;;;;;;;4.55;3.10;;;;;;;;;;5055210;28;20375;-56
2023/12/31 04:47:03;;;;;;;3.58;2.78;;;;;;;;;;5055637;28;20031;-56
2023/12/31 04:49:29;;;;;;;4.05;2.42;;;;;;;;;;5055673;28;20163;-56
2023/12/31 04:51:54;;;;;;;4.07;2.92;;;;;;;;;;5055044;28;20044;-55
2023/12/31 04:54:20;;;;;;;3.38;2.40;;;;;;;;;;5055328;28;20029;-56
2023/12/31 04:56:46;;;;;;;3.45;2.33;;;;;;;;;;5055006;28;20414;-56
2023/12/31 04:59:12;;;;;;;4.70;2.45;;;;;;;;;;5055407;28;20036;-52
2023/12/31 05:01:38;;;;;;;5.00;2.85;;;;;;;;;;5054712;28;20029;-56
2023/12/31 05:04:04;;;;;;;3.20;2.35;;;;;;;;;;5055300;28;20027;-55
2023/12/31 05:06:30;;;;;;;3.90;2.92;;;;;;;;;;5054752;28;20099;-56
2023/12/31 05:08:56;;;;;;;4.53;2.55;;;;;;;;;;5055376;28;20474;-54
2023/12/31 05:11:25;;;;;;;4.55;2.88;;;;;;;;;;5054929;28;20041;-55
2023/12/31 05:13:51;;;;;;;3.47;2.95;;;;;;;;;;5054596;28;20116;-55
2023/12/31 05:16:16;;;;;;;3.55;2.75;;;;;;;;;;5055316;28;20079;-55
2023/12/31 05:18:43;;;;;;;6.18;2.72;;;;;;;;;;5054441;28;20032;-56
2023/12/31 05:21:12;;;;;;;5.63;2.92;;;;;;;;;;5055287;28;20029;-55
2023/12/31 05:23:39;;;;;;;4.65;3.00;;;;;;;;;;5054413;28;20120;-55
2023/12/31 05:26:05;;;;;;;4.53;3.08;;;;;;;;;;5055017;28;20025;-55
2023/12/31 05:28:31;;;;;;;5.18;3.30;;;;;;;;;;5054962;28;20029;-55
2023/12/31 05:30:57;;;;;;;8.65;3.75;;;;;;;;;;5054522;28;20348;-56
2023/12/31 05:33:23;;;;;;;3.67;2.80;;;;;;;;;;5054337;28;20035;-56
2023/12/31 05:35:50;;;;;;;4.22;3.00;;;;;;;;;;5053877;28;20036;-56
2023/12/31 05:38:16;;;;;;;5.32;3.50;;;;;;;;;;5054308;28;20344;-56
2023/12/31 05:40:42;;;;;;;4.32;2.90;;;;;;;;;;5054675;28;20090;-56
2023/12/31 05:43:08;;;;;;;6.15;3.08;;;;;;;;;;5054685;28;20056;-54
2023/12/31 05:45:34;;;;;;;3.97;3.40;;;;;;;;;;5054128;28;20439;-55
2023/12/31 05:47:59;;;;;;;5.40;3.75;;;;;;;;;;5054304;28;20055;-54
2023/12/31 05:50:25;;;;;;;7.13;4.32;;;;;;;;;;5053632;28;20069;-55
2023/12/31 05:52:52;;;;;;;4.97;3.65;;;;;;;;;;5054598;28;20516;-53
2023/12/31 05:55:18;;;;;;;6.00;3.90;;;;;;;;;;5053618;28;20515;-56
2023/12/31 05:57:44;;;;;;;5.97;3.85;;;;;;;;;;5053807;28;20021;-56
2023/12/31 06:00:10;;;;;;;5.68;3.65;;;;;;;;;;5054004;28;20519;-55
2023/12/31 06:02:36;;;;;;;6.22;3.40;;;;;;;;;;5053775;28;20120;-56
2023/12/31 06:05:03;;;;;;;4.90;3.47;;;;;;;;;;5053813;28;20100;-56
2023/12/31 06:07:29;;;;;;;6.30;3.85;;;;;;;;;;5054325;28;20033;-56
2023/12/31 06:09:55;;;;;;;6.40;4.10;;;;;;;;;;5053553;28;20044;-55
2023/12/31 06:12:21;;;;;;;4.53;3.67;;;;;;;;;;5054221;28;20017;-56
2023/12/31 06:14:47;;;;;;;4.95;3.97;;;;;;;;;;5053358;28;20025;-56
2023/12/31 06:17:13;;;;;;;5.97;3.75;;;;;;;;;;5053333;28;20079;-56
2023/12/31 06:19:40;;;;;;;5.25;3.40;;;;;;;;;;5053883;28;20451;-55
2023/12/31 06:22:06;;;;;;;3.88;2.42;;;;;;;;;;5053639;28;20056;-55
2023/12/31 06:24:32;;;;;;;3.15;2.28;;;;;;;;;;5053647;28;20037;-56
2023/12/31 06:26:58;;;;;;;3.88;2.92;;;;;;;;;;5054138;28;20383;-56
2023/12/31 06:29:24;;;;;;;3.70;2.65;;;;;;;;;;5053304;28;20028;-54
2023/12/31 06:31:49;;;;;;;2.45;1.75;;;;;;;;;;5053531;28;20025;-56
2023/12/31 06:34:16;;;;;;;3.38;2.25;;;;;;;;;;5053216;28;20105;-56
2023/12/31 06:36:42;;;;;;;4.65;3.25;;;;;;;;;;5053945;28;20336;-55
2023/12/31 06:39:09;;;;;;;2.75;1.95;;;;;;;;;;5053773;28;20060;-55
2023/12/31 06:41:35;;;;;;;5.10;2.20;;;;;;;;;;5054256;28;20025;-56
2023/12/31 06:44:01;;;;;;;3.30;2.17;;;;;;;;;;5054012;28;20519;-57
2023/12/31 06:46:27;;;;;;;3.17;1.80;;;;;;;;;;5053574;28;20067;-58
2023/12/31 06:48:54;;;;;;;2.40;1.88;;;;;;;;;;5053852;28;20075;-58
2023/12/31 06:51:20;;;;;;;3.22;1.77;;;;;;;;;;5053444;28;20067;-58
2023/12/31 06:53:46;;;;;;;3.65;1.92;;;;;;;;;;5053357;28;20025;-58
2023/12/31 06:56:12;;;;;;;3.13;1.90;;;;;;;;;;5052942;28;20041;-56
2023/12/31 06:58:38;;;;;;;2.97;1.85;;;;;;;;;;5053185;28;20033;-56
2023/12/31 07:01:05;;;;;;;2.92;1.67;;;;;;;;;;5053080;28;20360;-58
2023/12/31 07:03:31;;;;;;;2.83;1.65;;;;;;;;;;5053171;28;20021;-59
2023/12/31 07:05:57;;;;;;;2.85;1.50;;;;;;;;;;5053625;28;20194;-58
2023/12/31 07:08:23;;;;;;;5.30;1.58;;;;;;;;;;5053305;28;20057;-55
2023/12/31 07:10:51;;;;;;;2.28;1.45;;;;;;;;;;5053452;28;20454;-58
2023/12/31 07:13:16;;;;;;;3.25;1.17;;;;;;;;;;5053165;28;20021;-58
2023/12/31 07:15:43;;;;;;;2.88;1.40;;;;;;;;;;5053670;28;20032;-58
2023/12/31 07:18:09;;;;;;;2.28;1.38;;;;;;;;;;5053658;28;20040;-58
2023/12/31 07:20:35;;;;;;;2.50;1.70;;;;;;;;;;5053034;28;20033;-58
2023/12/31 07:23:03;;;;;;;2.28;1.38;;;;;;;;;;5053628;28;20029;-57
2023/12/31 07:25:30;;;;;;;3.88;2.00;;;;;;;;;;5053587;28;20034;-57
2023/12/31 07:27:56;;;;;;;1.95;1.00;;;;;;;;;;5053576;28;20036;-56
2023/12/31 07:30:22;;;;;;;3.03;1.42;;;;;;;;;;5052788;28;20029;-57
2023/12/31 07:32:48;;;;;;;2.50;1.05;;;;;;;;;;5053257;28;20025;-58
2023/12/31 07:35:14;;;;;;;1.88;0.98;;;;;;;;;;5054655;28;20378;-58
2023/12/31 07:37:40;;;;;;;2.80;0.93;;;;;;;;;;5057020;28;20368;-58
2023/12/31 07:40:10;;;;;;;2.28;1.02;;;;;;;;;;5056446;28;20032;-57
2023/12/31 07:42:39;;;;;;;2.00;1.33;;;;;;;;;;5056678;28;20029;-58
2023/12/31 07:45:06;;;;;;;1.88;1.27;;;;;;;;;;5055120;28;20691;-58
2023/12/31 07:47:35;;;;;;;2.20;1.10;;;;;;;;;;5056571;28;20052;-55
2023/12/31 07:50:00;;;;;;;3.00;1.55;;;;;;;;;;5056239;28;20025;-54
2023/12/31 07:52:27;;;;;;;1.95;1.30;;;;;;;;;;5056248;28;20155;-55
2023/12/31 07:54:53;;;;;;;1.42;0.70;;;;;;;;;;5056213;28;20029;-53
2023/12/31 07:57:19;;;;;;;2.58;1.42;;;;;;;;;;5056702;28;20470;-55
2023/12/31 07:59:45;;;;;;;2.30;1.42;;;;;;;;;;5056061;28;20119;-53
2023/12/31 08:02:11;;;;;;;4.75;1.92;;;;;;;;;;5055966;28;20021;-54
2023/12/31 08:04:36;;;;;;;2.15;1.08;;;;;;;;;;5056512;28;20025;-53
2023/12/31 08:07:03;;;;;;;3.05;1.58;;;;;;;;;;5056460;28;20025;-52
2023/12/31 08:09:29;;;;;;;2.05;1.20;;;;;;;;;;5056334;28;20116;-54
2023/12/31 08:11:55;;;;;;;3.35;1.65;;;;;;;;;;5055861;28;20053;-53
2023/12/31 08:14:22;;;;;;;2.28;1.58;;;;;;;;;;5055843;28;20029;-55
2023/12/31 08:16:48;;;;;;;2.22;1.08;;;;;;;;;;5056476;28;20029;-54
2023/12/31 08:19:14;;;;;;;2.40;1.52;;;;;;;;;;5055500;28;20513;-56
2023/12/31 08:21:40;;;;;;;2.53;1.25;;;;;;;;;;5055719;28;20036;-53
2023/12/31 08:24:06;;;;;;;3.05;1.80;;;;;;;;;;5056455;28;20359;-55
2023/12/31 08:26:32;;;;;;;2.78;1.60;;;;;;;;;;5056149;28;20064;-56
2023/12/31 08:28:59;;;;;;;2.90;1.88;;;;;;;;;;5056384;28;20402;-56
2023/12/31 08:31:25;;;;;;;2.95;1.65;;;;;;;;;;5056060;28;20036;-53
2023/12/31 08:33:51;;;;;;;4.03;2.03;;;;;;;;;;5055453;28;20036;-56
2023/12/31 08:36:17;;;;;;;4.45;2.13;;;;;;;;;;5055454;28;20045;-56
2023/12/31 08:38:43;;;;;;;3.33;1.90;;;;;;;;;;5055909;28;20073;-53
2023/12/31 08:41:09;;;;;;;2.92;1.42;;;;;;;;;;5055874;28;20025;-55
2023/12/31 08:43:35;;;;;;;2.83;1.23;;;;;;;;;;5055290;28;20078;-57
2023/12/31 08:46:02;;;;;;;1.98;1.45;;;;;;;;;;5054885;28;20021;-54
2023/12/31 08:48:28;;;;;;;2.63;1.42;;;;;;;;;;5056072;28;20033;-56
2023/12/31 08:50:54;;;;;;;4.43;2.40;;;;;;;;;;5055122;28;20447;-55
2023/12/31 08:53:20;;;;;;;2.55;1.65;;;;;;;;;;5055435;28;20450;-56
2023/12/31 08:55:48;;;;;;;3.10;1.92;;;;;;;;;;5054857;28;20056;-55
2023/12/31 08:58:14;;;;;;;3.63;2.17;;;;;;;;;;5055615;28;20041;-55
2023/12/31 09:00:41;;;;;;;2.70;1.48;;;;;;;;;;5054761;28;20032;-57
2023/12/31 09:03:07;;;;;;;3.10;1.58;;;;;;;;;;5054681;28;20163;-57
2023/12/31 09:05:33;;;;;;;3.05;1.88;;;;;;;;;;5055201;28;20059;-55
2023/12/31 09:07:59;;;;;;;3.55;2.00;;;;;;;;;;5055021;28;20036;-57
2023/12/31 09:10:25;;;;;;;2.17;1.63;;;;;;;;;;5054984;28;20047;-54
2023/12/31 09:12:51;;;;;;;3.03;2.20;;;;;;;;;;5055105;28;20029;-57
2023/12/31 09:15:17;;;;;;;3.22;2.03;;;;;;;;;;5054553;28;20032;-57
2023/12/31 09:17:43;;;;;;;3.20;1.83;;;;;;;;;;5054515;28;20059;-58
2023/12/31 09:20:09;;;;;;;3.95;2.50;;;;;;;;;;5054744;28;20036;-57
2023/12/31 09:22:35;;;;;;;2.78;1.98;;;;;;;;;;5054987;28;20143;-57
2023/12/31 09:25:02;;;;;;;3.75;2.22;;;;;;;;;;5054476;28;20409;-56
2023/12/31 09:27:28;;;;;;;5.32;2.63;;;;;;;;;;5054960;28;20044;-56
2023/12/31 09:29:54;;;;;;;2.58;1.63;;;;;;;;;;5054054;28;20375;-56
2023/12/31 09:32:20;;;;;;;2.70;1.67;;;;;;;;;;5054339;28;20408;-56
2023/12/31 09:34:46;;;;;;;3.97;1.95;;;;;;;;;;5054839;28;20024;-55
2023/12/31 09:37:16;;;;;;;2.38;1.48;;;;;;;;;;5054772;28;20041;-56
2023/12/31 09:39:42;;;;;;;;;;;;;;;;;;5054680;28;20029;-55
2023/12/31 09:42:12;;;;;;;4.47;2.42;;;;;;;;;;5054127;28;19912;-55
2023/12/31 09:44:39;;;;;;;4.10;2.10;;;;;;;;;;5053729;28;20486;-57
2023/12/31 09:47:06;;;;;;;6.75;2.42;;;;;;;;;;5053706;28;20025;-57
2023/12/31 09:49:33;;;;;;;2.67;1.90;;;;;;;;;;5053997;28;20041;-57
2023/12/31 09:52:01;;;;;;;3.30;2.10;;;;;;;;;;5054017;28;20104;-56
2023/12/31 09:54:27;;;;;;;4.28;1.92;;;;;;;;;;5053472;28;20486;-57
2023/12/31 09:56:53;;;;;;;3.53;2.15;;;;;;;;;;5053922;28;20041;-58
2023/12/31 09:59:20;;;;;;;5.07;2.92;;;;;;;;;;5053425;28;20040;-56
2023/12/31 10:01:46;;;;;;;3.45;2.20;;;;;;;;;;5054059;28;20166;-53
2023/12/31 10:04:12;;;;;;;3.47;2.00;;;;;;;;;;5053943;28;20033;-53
2023/12/31 10:06:38;;;;;;;3.63;2.70;;;;;;;;;;5053216;28;20051;-56
2023/12/31 10:09:06;;;;;;;3.67;2.40;;;;;;;;;;5052783;28;20033;-57
2023/12/31 10:11:33;;;;;;;3.80;2.20;;;;;;;;;;5053864;28;20522;-57
2023/12/31 10:13:59;;;;;;;4.53;2.28;;;;;;;;;;5054119;28;20033;-57
2023/12/31 10:16:34;;;;;;;2.90;2.08;;;;;;;;;;5053563;28;20478;-56
2023/12/31 10:19:00;;;;;;;3.45;2.22;;;;;;;;;;5053938;28;20043;-56
2023/12/31 10:21:26;;;;;;;3.20;2.17;;;;;;;;;;5053286;28;20379;-57
2023/12/31 10:23:52;;;;;;;3.75;2.72;;;;;;;;;;5054231;28;20417;-56
2023/12/31 10:26:18;;;;;;;4.38;2.40;;;;;;;;;;5053877;28;20029;-57
2023/12/31 10:28:44;;;;;;;3.28;2.08;;;;;;;;;;5054223;28;20072;-57
2023/12/31 10:31:14;;;;;;;3.80;2.90;;;;;;;;;;5053740;28;20040;-59
2023/12/31 10:33:40;;;;;;;3.63;2.55;;;;;;;;;;5053589;28;20359;-58
2023/12/31 10:36:06;;;;;;;3.80;2.58;;;;;;;;;;5054015;28;20021;-57
2023/12/31 10:38:45;;;;;;;5.18;2.95;;;;;;;;;;5052952;28;20542;-56
2023/12/31 10:41:17;;;;;;;2.95;2.53;;;;;;;;;;5053331;28;20029;-55
2023/12/31 10:43:45;;;;;;;4.35;3.03;;;;;;;;;;5053636;28;20060;-53
2023/12/31 10:46:14;;;;;;;5.60;3.15;;;;;;;;;;5054046;28;20025;-57
2023/12/31 10:48:44;;;;;;;4.45;3.15;;;;;;;;;;5053862;28;20051;-53
2023/12/31 10:51:11;;;;;;;6.50;3.42;;;;;;;;;;5053896;28;20029;-56
2023/12/31 10:53:38;;;;;;;5.07;3.28;;;;;;;;;;5053984;28;20108;-54
2023/12/31 10:56:05;;;;;;;5.00;3.38;;;;;;;;;;5053660;28;20049;-59
2023/12/31 10:58:32;;;;;;;4.07;3.22;;;;;;;;;;5053434;28;20095;-59
2023/12/31 11:00:58;;;;;;;3.45;2.53;;;;;;;;;;5053776;28;20371;-59
2023/12/31 11:03:26;;;;;;;5.38;3.72;;;;;;;;;;5052868;28;20040;-58
2023/12/31 11:05:52;;;;;;;11.43;4.00;;;;;;;;;;5054024;28;20029;-58
2023/12/31 11:08:19;;;;;;;3.97;2.88;;;;;;;;;;5053944;28;20036;-55
2023/12/31 11:10:46;;;;;;;4.05;2.58;;;;;;;;;;5056445;28;20036;-58
2023/12/31 11:13:12;;;;;;;3.97;2.60;;;;;;;;;;5056977;28;20082;-58
2023/12/31 11:15:39;;;;;;;4.93;3.20;;;;;;;;;;5057264;28;20450;-57
2023/12/31 11:18:27;;;;;;;4.07;2.95;;;;;;;;;;5057438;28;20029;-57
2023/12/31 11:20:56;;;;;;;3.20;2.60;;;;;;;;;;5056924;28;20545;-55
2023/12/31 11:23:39;;;;;;;4.82;2.75;;;;;;;;;;5056550;28;20052;-54
2023/12/31 11:26:08;;;;;;;4.07;2.72;;;;;;;;;;5057162;28;20063;-55
2023/12/31 11:28:35;;;;;;;3.95;3.00;;;;;;;;;;5057125;28;20370;-55
2023/12/31 11:31:04;;;;;;;4.53;2.95;;;;;;;;;;5056820;28;20523;-55
2023/12/31 11:33:30;;;;;;;4.32;3.22;;;;;;;;;;5056681;28;20518;-55
2023/12/31 11:35:57;;;;;;;3.95;3.55;;;;;;;;;;5056001;28;20116;-54
2023/12/31 11:38:26;;;;;;;3.50;2.83;;;;;;;;;;5056576;28;20025;-53
2023/12/31 11:40:54;;;;;;;4.53;3.40;;;;;;;;;;5056757;28;20060;-55
2023/12/31 11:43:21;;;;;;;4.57;3.60;;;;;;;;;;5056330;28;20029;-55
2023/12/31 11:45:50;;;;;;;4.88;3.63;;;;;;;;;;5056888;28;20035;-55
2023/12/31 11:48:18;;;;;;;3.55;2.60;;;;;;;;;;5056904;28;20021;-55
2023/12/31 11:50:44;;;;;;;5.05;3.10;;;;;;;;;;5056627;28;20036;-55
2023/12/31 11:53:13;;;;;;;3.75;2.55;;;;;;;;;;5057078;28;20056;-52
2023/12/31 11:55:40;;;;;;;3.35;2.33;;;;;;;;;;5056418;28;20049;-55
2023/12/31 11:58:08;;;;;;;3.33;1.60;;;;;;;;;;5056140;28;20067;-55
2023/12/31 12:00:34;;;;;;;23.13;12.15;;;;;;;;;;5056093;28;20033;-54
2023/12/31 12:03:03;;;;;;;3.53;1.98;;;;;;;;;;5056080;28;20055;-54
2023/12/31 12:05:30;;;;;;;2.17;1.48;;;;;;;;;;5055639;28;20025;-56
2023/12/31 12:07:56;;;;;;;2.08;1.08;;;;;;;;;;5056100;28;20047;-55
2023/12/31 12:10:22;;;;;;;2.35;1.05;;;;;;;;;;5055791;28;20028;-53
2023/12/31 12:12:50;;;;;;;2.70;0.88;;;;;;;;;;5055849;28;20073;-57
2023/12/31 12:15:16;;;;;;;1.70;0.88;;;;;;;;;;5055769;28;20139;-56
2023/12/31 12:17:42;;;;;;;2.83;1.17;;;;;;;;;;5056514;28;20466;-57
2023/12/31 12:20:08;;;;;;;1.92;1.15;;;;;;;;;;5055519;28;20021;-56
2023/12/31 12:22:34;;;;;;;1.85;0.90;;;;;;;;;;5054908;28;20360;-56
2023/12/31 12:25:00;;;;;;;1.48;0.75;;;;;;;;;;5055557;28;20055;-56
2023/12/31 12:27:26;;;;;;;1.73;0.93;;;;;;;;;;5055910;28;20032;-56
2023/12/31 12:29:52;;;;;;;2.10;1.00;;;;;;;;;;5055990;28;20036;-58
2023/12/31 12:32:19;;;;;;;0.90;0.50;;;;;;;;;;5055378;28;20029;-54
2023/12/31 12:34:48;;;;;;;2.35;1.00;;;;;;;;;;5055261;28;20112;-56
2023/12/31 12:37:14;;;;;;;1.98;1.10;;;;;;;;;;5055847;28;20040;-57
2023/12/31 12:39:40;;;;;;;1.48;0.85;;;;;;;;;;5055348;28;20374;-58
2023/12/31 12:42:06;;;;;;;2.20;0.70;;;;;;;;;;5055537;28;20144;-58
2023/12/31 12:44:34;;;;;;;1.17;0.60;;;;;;;;;;5056055;28;20032;-58
2023/12/31 12:47:02;;;;;;;1.50;0.73;;;;;;;;;;5055553;28;20366;-58
2023/12/31 12:49:28;;;;;;;1.35;0.88;;;;;;;;;;5055782;28;20049;-57
2023/12/31 12:51:55;;;;;;;0.77;0.50;;;;;;;;;;5055006;28;20028;-57
2023/12/31 12:54:24;;;;;;;1.65;0.52;;;;;;;;;;5055077;28;20025;-52
2023/12/31 12:56:50;;;;;;;1.27;0.60;;;;;;;;;;5054607;28;20052;-53
2023/12/31 12:59:16;;;;;;;2.05;0.90;;;;;;;;;;5054628;28;20475;-53
2023/12/31 13:01:42;;;;;;;2.90;0.80;;;;;;;;;;5055514;28;20050;-56
2023/12/31 13:04:12;;;;;;;2.63;0.90;;;;;;;;;;5055314;28;20026;-56
2023/12/31 13:06:38;;;;;;;1.27;0.75;;;;;;;;;;5055378;28;20035;-56
2023/12/31 13:09:04;;;;;;;1.50;0.57;;;;;;;;;;5055007;28;20459;-56
2023/12/31 13:11:30;;;;;;;1.67;1.10;;;;;;;;;;5054644;28;20021;-57
2023/12/31 13:13:56;;;;;;;1.73;0.90;;;;;;;;;;5054564;28;20025;-55
2023/12/31 13:16:22;;;;;;;1.70;0.63;;;;;;;;;;5054582;28;20036;-55
2023/12/31 13:18:48;;;;;;;0.93;0.45;;;;;;;;;;5055225;28;20033;-54
2023/12/31 13:21:14;;;;;;;3.42;0.73;;;;;;;;;;5054970;28;20366;-55
2023/12/31 13:23:40;;;;;;;0.93;0.40;;;;;;;;;;5054960;28;20023;-55
2023/12/31 13:26:08;;;;;;;0.75;0.30;;;;;;;;;;5054664;28;20509;-53
2023/12/31 13:28:34;;;;;;;1.05;0.50;;;;;;;;;;5054993;28;20033;-53
2023/12/31 13:31:00;;;;;;;1.50;0.60;;;;;;;;;;5054325;28;20035;-55
2023/12/31 13:33:26;;;;;;;1.10;0.50;;;;;;;;;;5054951;28;20039;-57
2023/12/31 13:35:52;;;;;;;2.85;0.68;;;;;;;;;;5054191;28;20025;-57
2023/12/31 13:38:22;;;;;;;6.03;2.97;;;;;;;;;;5054858;28;20111;-56
2023/12/31 13:40:50;;;;;;;6.13;2.97;;;;;;;;;;5054686;28;20025;-57
2023/12/31 13:43:16;;;;;;;10.32;4.95;;;;;;;;;;5054094;28;20367;-57
2023/12/31 13:45:42;;;;;;;12.10;3.78;;;;;;;;;;5053764;28;20523;-56
2023/12/31 13:48:08;;;;;;;4.00;2.45;;;;;;;;;;5054427;28;20057;-54
2023/12/31 13:50:34;;;;;;;3.08;2.13;;;;;;;;;;5053952;28;20028;-54
2023/12/31 13:53:00;;;;;;;2.88;1.55;;;;;;;;;;5053732;28;20100;-53
2023/12/31 13:55:26;;;;;;;3.80;1.50;;;;;;;;;;5053654;28;20024;-57
2023/12/31 13:57:52;;;;;;;2.22;0.93;;;;;;;;;;5054226;28;20040;-54
2023/12/31 14:00:18;;;;;;;2.13;1.23;;;;;;;;;;5053813;28;20032;-56
2023/12/31 14:02:44;;;;;;;2.10;1.02;;;;;;;;;;5053584;28;20032;-57
2023/12/31 14:05:11;;;;;;;1.55;0.90;;;;;;;;;;5053610;28;20078;-58
2023/12/31 14:07:36;;;;;;;2.72;1.17;;;;;;;;;;5054258;28;20036;-57
2023/12/31 14:10:02;;;;;;;2.67;0.98;;;;;;;;;;5053792;28;20098;-54
2023/12/31 14:12:28;;;;;;;2.30;1.15;;;;;;;;;;5053441;28;20062;-57
2023/12/31 14:14:54;;;;;;;1.92;0.98;;;;;;;;;;5053661;28;20474;-56
2023/12/31 14:17:20;;;;;;;2.72;1.10;;;;;;;;;;5054181;28;20021;-57
2023/12/31 14:19:46;;;;;;;1.73;0.77;;;;;;;;;;5053642;28;20202;-56
2023/12/31 14:22:13;;;;;;;2.92;1.23;;;;;;;;;;5054205;28;20064;-58
2023/12/31 14:24:39;;;;;;;1.60;1.10;;;;;;;;;;5053664;28;20119;-54
2023/12/31 14:27:07;;;;;;;1.60;0.93;;;;;;;;;;5053580;28;20025;-57
2023/12/31 14:29:33;;;;;;;1.13;0.52;;;;;;;;;;5054308;28;20352;-57
2023/12/31 14:31:59;;;;;;;1.70;1.05;;;;;;;;;;5054128;28;20036;-56
2023/12/31 14:34:25;;;;;;;1.90;1.10;;;;;;;;;;5053562;28;20052;-54
2023/12/31 14:36:50;;;;;;;3.13;1.60;;;;;;;;;;5053677;28;20354;-56
2023/12/31 14:39:18;;;;;;;4.55;1.75;;;;;;;;;;5053426;28;20033;-56